sensor_id;sensor_type;location;lat;lon;timestamp;temperature;humidity
25138;DHT22;13112;50.986;4.354;2022-10-16T00:00:19;14.30;99.90
25138;DHT22;13112;50.986;4.354;2022-10-16T00:02:44;14.30;99.90
25138;DHT22;13112;50.986;4.354;2022-10-16T00:05:10;14.30;99.90
25138;DHT22;13112;50.986;4.354;2022-10-16T00:07:35;14.30;99.90
25138;DHT22;13112;50.986;4.354;2022-10-16T00:10:01;14.40;99.90
25138;DHT22;13112;50.986;4.354;2022-10-16T00:12:27;14.40;99.90
25138;DHT22;13112;50.986;4.354;2022-10-16T00:14:52;14.50;99.90
25138;DHT22;13112;50.986;4.354;2022-10-16T00:17:18;14.60;99.90
25138;DHT22;13112;50.986;4.354;2022-10-16T00:19:44;14.50;99.90
25138;DHT22;13112;50.986;4.354;2022-10-16T00:22:09;14.60;99.90
25138;DHT22;13112;50.986;4.354;2022-10-16T00:24:36;14.60;99.90
25138;DHT22;13112;50.986;4.354;2022-10-16T00:27:02;14.50;99.90
25138;DHT22;13112;50.986;4.354;2022-10-16T00:29:27;14.50;99.90
25138;DHT22;13112;50.986;4.354;2022-10-16T00:31:53;14.50;99.90
25138;DHT22;13112;50.986;4.354;2022-10-16T00:34:19;14.50;99.90
25138;DHT22;13112;50.986;4.354;2022-10-16T00:36:44;14.40;99.90
25138;DHT22;13112;50.986;4.354;2022-10-16T00:39:10;14.40;99.90
25138;DHT22;13112;50.986;4.354;2022-10-16T00:41:35;14.50;99.90
25138;DHT22;13112;50.986;4.354;2022-10-16T00:44:04;14.60;99.90
25138;DHT22;13112;50.986;4.354;2022-10-16T00:46:50;14.60;99.90
25138;DHT22;13112;50.986;4.354;2022-10-16T00:49:17;14.50;99.90
25138;DHT22;13112;50.986;4.354;2022-10-16T00:51:50;14.50;99.90
25138;DHT22;13112;50.986;4.354;2022-10-16T00:54:19;14.50;99.90
25138;DHT22;13112;50.986;4.354;2022-10-16T00:56:47;14.50;99.90
25138;DHT22;13112;50.986;4.354;2022-10-16T01:01:46;14.20;99.90
25138;DHT22;13112;50.986;4.354;2022-10-16T01:04:12;14.10;99.90
25138;DHT22;13112;50.986;4.354;2022-10-16T01:12:38;14.00;99.90
25138;DHT22;13112;50.986;4.354;2022-10-16T01:16:17;13.90;99.90
25138;DHT22;13112;50.986;4.354;2022-10-16T01:18:39;13.80;99.90
25138;DHT22;13112;50.986;4.354;2022-10-16T01:21:16;13.70;99.90
25138;DHT22;13112;50.986;4.354;2022-10-16T01:26:59;13.80;99.90
25138;DHT22;13112;50.986;4.354;2022-10-16T01:29:33;13.80;99.90
25138;DHT22;13112;50.986;4.354;2022-10-16T01:32:05;13.80;99.90
25138;DHT22;13112;50.986;4.354;2022-10-16T01:34:50;13.70;99.90
25138;DHT22;13112;50.986;4.354;2022-10-16T01:37:27;13.80;99.90
25138;DHT22;13112;50.986;4.354;2022-10-16T01:39:58;13.70;99.90
25138;DHT22;13112;50.986;4.354;2022-10-16T01:42:31;13.60;99.90
25138;DHT22;13112;50.986;4.354;2022-10-16T01:45:00;13.70;99.90
25138;DHT22;13112;50.986;4.354;2022-10-16T01:47:27;13.70;99.90
25138;DHT22;13112;50.986;4.354;2022-10-16T01:49:55;13.80;99.90
25138;DHT22;13112;50.986;4.354;2022-10-16T01:52:25;13.90;99.90
25138;DHT22;13112;50.986;4.354;2022-10-16T01:54:54;14.00;99.90
25138;DHT22;13112;50.986;4.354;2022-10-16T01:57:21;14.00;99.90
25138;DHT22;13112;50.986;4.354;2022-10-16T01:59:54;13.90;99.90
25138;DHT22;13112;50.986;4.354;2022-10-16T02:02:21;13.80;99.90
25138;DHT22;13112;50.986;4.354;2022-10-16T02:04:54;13.80;99.90
25138;DHT22;13112;50.986;4.354;2022-10-16T02:07:23;13.70;99.90
25138;DHT22;13112;50.986;4.354;2022-10-16T02:09:49;13.70;99.90
25138;DHT22;13112;50.986;4.354;2022-10-16T02:12:22;13.60;99.90
25138;DHT22;13112;50.986;4.354;2022-10-16T02:14:49;13.70;99.90
25138;DHT22;13112;50.986;4.354;2022-10-16T02:17:17;13.60;99.90
25138;DHT22;13112;50.986;4.354;2022-10-16T02:19:44;13.60;99.90
25138;DHT22;13112;50.986;4.354;2022-10-16T02:22:22;13.60;99.90
25138;DHT22;13112;50.986;4.354;2022-10-16T02:25:02;13.60;99.90
25138;DHT22;13112;50.986;4.354;2022-10-16T02:30:47;13.60;99.90
25138;DHT22;13112;50.986;4.354;2022-10-16T02:33:12;13.50;99.90
25138;DHT22;13112;50.986;4.354;2022-10-16T02:35:43;13.50;99.90
25138;DHT22;13112;50.986;4.354;2022-10-16T02:38:11;13.50;99.90
25138;DHT22;13112;50.986;4.354;2022-10-16T02:40:38;13.50;99.90
25138;DHT22;13112;50.986;4.354;2022-10-16T02:43:04;13.50;99.90
25138;DHT22;13112;50.986;4.354;2022-10-16T02:45:31;13.50;99.90
25138;DHT22;13112;50.986;4.354;2022-10-16T02:47:57;13.50;99.90
25138;DHT22;13112;50.986;4.354;2022-10-16T02:50:22;13.50;99.90
25138;DHT22;13112;50.986;4.354;2022-10-16T02:52:49;13.40;99.90
25138;DHT22;13112;50.986;4.354;2022-10-16T02:55:15;13.40;99.90
25138;DHT22;13112;50.986;4.354;2022-10-16T02:57:41;13.50;99.90
25138;DHT22;13112;50.986;4.354;2022-10-16T03:00:12;13.40;99.90
25138;DHT22;13112;50.986;4.354;2022-10-16T03:02:37;13.40;99.90
25138;DHT22;13112;50.986;4.354;2022-10-16T03:05:04;13.40;99.90
25138;DHT22;13112;50.986;4.354;2022-10-16T03:07:29;13.40;99.90
25138;DHT22;13112;50.986;4.354;2022-10-16T03:09:55;13.50;99.90
25138;DHT22;13112;50.986;4.354;2022-10-16T03:12:21;13.50;99.90
25138;DHT22;13112;50.986;4.354;2022-10-16T03:14:47;13.40;99.90
25138;DHT22;13112;50.986;4.354;2022-10-16T03:17:13;13.50;99.90
25138;DHT22;13112;50.986;4.354;2022-10-16T03:19:39;13.50;99.90
25138;DHT22;13112;50.986;4.354;2022-10-16T03:22:05;13.40;99.90
25138;DHT22;13112;50.986;4.354;2022-10-16T03:24:30;13.40;99.90
25138;DHT22;13112;50.986;4.354;2022-10-16T03:26:56;13.50;99.90
25138;DHT22;13112;50.986;4.354;2022-10-16T03:29:22;13.50;99.90
25138;DHT22;13112;50.986;4.354;2022-10-16T03:31:48;13.50;99.90
25138;DHT22;13112;50.986;4.354;2022-10-16T03:34:15;13.50;99.90
25138;DHT22;13112;50.986;4.354;2022-10-16T03:36:40;13.40;99.90
25138;DHT22;13112;50.986;4.354;2022-10-16T03:39:06;13.50;99.90
25138;DHT22;13112;50.986;4.354;2022-10-16T03:41:32;13.50;99.90
25138;DHT22;13112;50.986;4.354;2022-10-16T03:43:57;13.60;99.90
25138;DHT22;13112;50.986;4.354;2022-10-16T03:46:23;13.70;99.90
25138;DHT22;13112;50.986;4.354;2022-10-16T03:48:49;13.70;99.90
25138;DHT22;13112;50.986;4.354;2022-10-16T03:51:14;13.70;99.90
25138;DHT22;13112;50.986;4.354;2022-10-16T03:53:40;13.90;99.90
25138;DHT22;13112;50.986;4.354;2022-10-16T03:56:06;13.90;99.90
25138;DHT22;13112;50.986;4.354;2022-10-16T03:58:32;13.90;99.90
25138;DHT22;13112;50.986;4.354;2022-10-16T04:00:57;13.90;99.90
25138;DHT22;13112;50.986;4.354;2022-10-16T04:03:23;13.90;99.90
25138;DHT22;13112;50.986;4.354;2022-10-16T04:05:49;13.90;99.90
25138;DHT22;13112;50.986;4.354;2022-10-16T04:08:15;13.90;99.90
25138;DHT22;13112;50.986;4.354;2022-10-16T04:10:44;13.80;99.90
25138;DHT22;13112;50.986;4.354;2022-10-16T04:13:11;13.80;99.90
25138;DHT22;13112;50.986;4.354;2022-10-16T04:15:37;13.60;99.90
25138;DHT22;13112;50.986;4.354;2022-10-16T04:18:03;13.60;99.90
25138;DHT22;13112;50.986;4.354;2022-10-16T04:20:29;13.60;99.90
25138;DHT22;13112;50.986;4.354;2022-10-16T04:22:55;13.50;99.90
25138;DHT22;13112;50.986;4.354;2022-10-16T04:25:21;13.50;99.90
25138;DHT22;13112;50.986;4.354;2022-10-16T04:27:47;13.50;99.90
25138;DHT22;13112;50.986;4.354;2022-10-16T04:30:13;13.50;99.90
25138;DHT22;13112;50.986;4.354;2022-10-16T04:32:39;13.60;99.90
25138;DHT22;13112;50.986;4.354;2022-10-16T04:35:06;13.60;99.90
25138;DHT22;13112;50.986;4.354;2022-10-16T04:37:31;13.70;99.90
25138;DHT22;13112;50.986;4.354;2022-10-16T04:39:57;13.60;99.90
25138;DHT22;13112;50.986;4.354;2022-10-16T04:42:23;13.60;99.90
25138;DHT22;13112;50.986;4.354;2022-10-16T04:44:49;13.60;99.90
25138;DHT22;13112;50.986;4.354;2022-10-16T04:47:14;13.60;99.90
25138;DHT22;13112;50.986;4.354;2022-10-16T04:49:40;13.50;99.90
25138;DHT22;13112;50.986;4.354;2022-10-16T04:52:06;13.60;99.90
25138;DHT22;13112;50.986;4.354;2022-10-16T04:54:32;13.70;99.90
25138;DHT22;13112;50.986;4.354;2022-10-16T04:56:57;13.60;99.90
25138;DHT22;13112;50.986;4.354;2022-10-16T04:59:23;13.60;99.90
25138;DHT22;13112;50.986;4.354;2022-10-16T05:01:49;13.50;99.90
25138;DHT22;13112;50.986;4.354;2022-10-16T05:04:15;13.50;99.90
25138;DHT22;13112;50.986;4.354;2022-10-16T05:06:41;13.50;99.90
25138;DHT22;13112;50.986;4.354;2022-10-16T05:09:08;13.50;99.90
25138;DHT22;13112;50.986;4.354;2022-10-16T05:11:34;13.40;99.90
25138;DHT22;13112;50.986;4.354;2022-10-16T05:14:00;13.40;99.90
25138;DHT22;13112;50.986;4.354;2022-10-16T05:16:26;13.40;99.90
25138;DHT22;13112;50.986;4.354;2022-10-16T05:18:52;13.40;99.90
25138;DHT22;13112;50.986;4.354;2022-10-16T05:21:18;13.30;99.90
25138;DHT22;13112;50.986;4.354;2022-10-16T05:23:43;13.30;99.90
25138;DHT22;13112;50.986;4.354;2022-10-16T05:26:09;13.30;99.90
25138;DHT22;13112;50.986;4.354;2022-10-16T05:28:35;13.40;99.90
25138;DHT22;13112;50.986;4.354;2022-10-16T05:31:08;13.40;99.90
25138;DHT22;13112;50.986;4.354;2022-10-16T05:33:35;13.40;99.90
25138;DHT22;13112;50.986;4.354;2022-10-16T05:36:05;13.40;99.90
25138;DHT22;13112;50.986;4.354;2022-10-16T05:38:32;13.30;99.90
25138;DHT22;13112;50.986;4.354;2022-10-16T05:40:58;13.40;99.90
25138;DHT22;13112;50.986;4.354;2022-10-16T05:43:23;13.20;99.90
25138;DHT22;13112;50.986;4.354;2022-10-16T05:46:04;13.10;99.90
25138;DHT22;13112;50.986;4.354;2022-10-16T05:48:30;13.10;99.90
25138;DHT22;13112;50.986;4.354;2022-10-16T05:51:01;13.30;99.90
25138;DHT22;13112;50.986;4.354;2022-10-16T05:53:29;13.20;99.90
25138;DHT22;13112;50.986;4.354;2022-10-16T05:55:55;13.20;99.90
25138;DHT22;13112;50.986;4.354;2022-10-16T05:58:22;13.20;99.90
25138;DHT22;13112;50.986;4.354;2022-10-16T06:00:59;13.30;99.90
25138;DHT22;13112;50.986;4.354;2022-10-16T06:03:25;13.30;99.90
25138;DHT22;13112;50.986;4.354;2022-10-16T06:05:51;13.30;99.90
25138;DHT22;13112;50.986;4.354;2022-10-16T06:08:18;13.30;99.90
25138;DHT22;13112;50.986;4.354;2022-10-16T06:10:45;13.30;99.90
25138;DHT22;13112;50.986;4.354;2022-10-16T06:13:11;13.30;99.90
25138;DHT22;13112;50.986;4.354;2022-10-16T06:15:38;13.50;99.90
25138;DHT22;13112;50.986;4.354;2022-10-16T06:18:05;13.60;99.90
25138;DHT22;13112;50.986;4.354;2022-10-16T06:20:30;13.70;99.90
25138;DHT22;13112;50.986;4.354;2022-10-16T06:22:57;13.80;99.90
25138;DHT22;13112;50.986;4.354;2022-10-16T06:25:22;13.80;99.90
25138;DHT22;13112;50.986;4.354;2022-10-16T06:27:48;13.90;99.90
25138;DHT22;13112;50.986;4.354;2022-10-16T06:30:14;13.90;99.90
25138;DHT22;13112;50.986;4.354;2022-10-16T06:32:39;13.90;99.90
25138;DHT22;13112;50.986;4.354;2022-10-16T06:35:05;13.90;99.90
25138;DHT22;13112;50.986;4.354;2022-10-16T06:37:31;14.10;99.90
25138;DHT22;13112;50.986;4.354;2022-10-16T06:39:56;14.10;99.90
25138;DHT22;13112;50.986;4.354;2022-10-16T06:42:22;14.20;99.90
25138;DHT22;13112;50.986;4.354;2022-10-16T06:44:48;14.40;99.90
25138;DHT22;13112;50.986;4.354;2022-10-16T06:47:14;14.40;99.90
25138;DHT22;13112;50.986;4.354;2022-10-16T06:49:39;14.50;99.90
25138;DHT22;13112;50.986;4.354;2022-10-16T06:52:05;14.60;99.90
25138;DHT22;13112;50.986;4.354;2022-10-16T06:54:31;15.10;99.90
25138;DHT22;13112;50.986;4.354;2022-10-16T06:56:56;15.40;99.90
25138;DHT22;13112;50.986;4.354;2022-10-16T06:59:22;15.70;99.90
25138;DHT22;13112;50.986;4.354;2022-10-16T07:01:48;16.20;99.90
25138;DHT22;13112;50.986;4.354;2022-10-16T07:04:14;16.60;99.90
25138;DHT22;13112;50.986;4.354;2022-10-16T07:06:40;17.20;99.90
25138;DHT22;13112;50.986;4.354;2022-10-16T07:09:09;17.40;99.90
25138;DHT22;13112;50.986;4.354;2022-10-16T07:11:37;17.70;99.90
25138;DHT22;13112;50.986;4.354;2022-10-16T07:14:03;17.90;99.90
25138;DHT22;13112;50.986;4.354;2022-10-16T07:16:31;17.80;99.90
25138;DHT22;13112;50.986;4.354;2022-10-16T07:18:58;18.10;99.90
25138;DHT22;13112;50.986;4.354;2022-10-16T07:21:27;18.90;99.90
25138;DHT22;13112;50.986;4.354;2022-10-16T07:24:00;19.20;99.90
25138;DHT22;13112;50.986;4.354;2022-10-16T07:26:32;19.30;99.90
25138;DHT22;13112;50.986;4.354;2022-10-16T07:28:58;19.70;99.90
25138;DHT22;13112;50.986;4.354;2022-10-16T07:31:25;20.00;99.90
25138;DHT22;13112;50.986;4.354;2022-10-16T07:33:53;20.80;99.90
25138;DHT22;13112;50.986;4.354;2022-10-16T07:36:20;21.10;99.90
25138;DHT22;13112;50.986;4.354;2022-10-16T07:38:49;21.20;99.90
25138;DHT22;13112;50.986;4.354;2022-10-16T07:41:18;21.00;99.90
25138;DHT22;13112;50.986;4.354;2022-10-16T07:43:49;20.90;99.90
25138;DHT22;13112;50.986;4.354;2022-10-16T07:46:15;20.30;99.90
25138;DHT22;13112;50.986;4.354;2022-10-16T07:48:43;20.90;99.90
25138;DHT22;13112;50.986;4.354;2022-10-16T07:51:15;21.60;99.90
25138;DHT22;13112;50.986;4.354;2022-10-16T07:53:41;21.80;99.90
25138;DHT22;13112;50.986;4.354;2022-10-16T07:56:08;21.80;99.90
25138;DHT22;13112;50.986;4.354;2022-10-16T07:58:35;21.80;99.90
25138;DHT22;13112;50.986;4.354;2022-10-16T08:01:05;21.40;99.90
25138;DHT22;13112;50.986;4.354;2022-10-16T08:03:32;20.80;99.90
25138;DHT22;13112;50.986;4.354;2022-10-16T08:05:58;20.50;99.90
25138;DHT22;13112;50.986;4.354;2022-10-16T08:08:24;20.20;99.90
25138;DHT22;13112;50.986;4.354;2022-10-16T08:10:50;19.40;99.90
25138;DHT22;13112;50.986;4.354;2022-10-16T08:13:16;18.70;99.90
25138;DHT22;13112;50.986;4.354;2022-10-16T08:15:45;17.90;99.90
25138;DHT22;13112;50.986;4.354;2022-10-16T08:18:13;17.60;99.90
25138;DHT22;13112;50.986;4.354;2022-10-16T08:20:40;17.30;99.90
25138;DHT22;13112;50.986;4.354;2022-10-16T08:23:06;17.20;99.90
25138;DHT22;13112;50.986;4.354;2022-10-16T08:25:34;17.00;99.90
25138;DHT22;13112;50.986;4.354;2022-10-16T08:28:00;17.40;99.90
25138;DHT22;13112;50.986;4.354;2022-10-16T08:30:28;18.20;99.90
25138;DHT22;13112;50.986;4.354;2022-10-16T08:32:53;19.40;99.90
25138;DHT22;13112;50.986;4.354;2022-10-16T08:35:19;20.90;99.90
25138;DHT22;13112;50.986;4.354;2022-10-16T08:37:45;21.60;99.90
25138;DHT22;13112;50.986;4.354;2022-10-16T08:40:24;21.60;99.90
25138;DHT22;13112;50.986;4.354;2022-10-16T08:48:51;23.20;99.90
25138;DHT22;13112;50.986;4.354;2022-10-16T08:51:29;24.10;99.90
25138;DHT22;13112;50.986;4.354;2022-10-16T08:56:50;24.20;99.90
25138;DHT22;13112;50.986;4.354;2022-10-16T08:59:17;25.10;99.90
25138;DHT22;13112;50.986;4.354;2022-10-16T09:01:50;24.50;99.90
25138;DHT22;13112;50.986;4.354;2022-10-16T09:07:04;25.60;99.90
25138;DHT22;13112;50.986;4.354;2022-10-16T09:09:56;25.70;99.90
25138;DHT22;13112;50.986;4.354;2022-10-16T09:12:38;27.10;99.90
25138;DHT22;13112;50.986;4.354;2022-10-16T09:15:39;28.00;99.90
25138;DHT22;13112;50.986;4.354;2022-10-16T09:23:34;30.40;99.90
25138;DHT22;13112;50.986;4.354;2022-10-16T09:26:01;30.40;99.90
25138;DHT22;13112;50.986;4.354;2022-10-16T09:28:28;30.70;99.40
25138;DHT22;13112;50.986;4.354;2022-10-16T09:30:53;31.50;98.10
25138;DHT22;13112;50.986;4.354;2022-10-16T09:33:23;30.70;97.10
25138;DHT22;13112;50.986;4.354;2022-10-16T09:35:53;30.20;98.10
25138;DHT22;13112;50.986;4.354;2022-10-16T09:40:51;29.80;97.70
25138;DHT22;13112;50.986;4.354;2022-10-16T09:43:24;29.30;98.30
25138;DHT22;13112;50.986;4.354;2022-10-16T09:46:04;29.80;97.60
25138;DHT22;13112;50.986;4.354;2022-10-16T09:48:43;29.30;97.10
25138;DHT22;13112;50.986;4.354;2022-10-16T09:51:28;30.20;96.70
25138;DHT22;13112;50.986;4.354;2022-10-16T09:54:28;31.20;95.80
25138;DHT22;13112;50.986;4.354;2022-10-16T09:56:48;31.30;94.60
25138;DHT22;13112;50.986;4.354;2022-10-16T09:59:21;30.00;95.20
25138;DHT22;13112;50.986;4.354;2022-10-16T10:01:51;29.50;95.90
25138;DHT22;13112;50.986;4.354;2022-10-16T10:04:18;29.20;96.10
25138;DHT22;13112;50.986;4.354;2022-10-16T10:06:58;28.50;96.40
25138;DHT22;13112;50.986;4.354;2022-10-16T10:09:32;28.90;96.90
25138;DHT22;13112;50.986;4.354;2022-10-16T10:12:06;29.00;97.20
25138;DHT22;13112;50.986;4.354;2022-10-16T10:14:46;29.40;96.80
25138;DHT22;13112;50.986;4.354;2022-10-16T10:17:32;30.80;96.10
25138;DHT22;13112;50.986;4.354;2022-10-16T10:20:00;31.00;94.40
25138;DHT22;13112;50.986;4.354;2022-10-16T10:22:39;30.90;92.80
25138;DHT22;13112;50.986;4.354;2022-10-16T10:46:32;33.90;90.20
25138;DHT22;13112;50.986;4.354;2022-10-16T10:58:29;32.80;85.50
25138;DHT22;13112;50.986;4.354;2022-10-16T11:01:11;32.80;84.80
25138;DHT22;13112;50.986;4.354;2022-10-16T11:06:19;32.70;87.10
25138;DHT22;13112;50.986;4.354;2022-10-16T11:11:51;32.30;86.40
25138;DHT22;13112;50.986;4.354;2022-10-16T11:14:24;33.80;83.50
25138;DHT22;13112;50.986;4.354;2022-10-16T11:17:07;33.50;82.10
25138;DHT22;13112;50.986;4.354;2022-10-16T11:19:48;31.10;84.40
25138;DHT22;13112;50.986;4.354;2022-10-16T11:22:22;29.00;90.10
25138;DHT22;13112;50.986;4.354;2022-10-16T11:24:51;29.80;88.70
25138;DHT22;13112;50.986;4.354;2022-10-16T11:35:53;33.30;82.30
25138;DHT22;13112;50.986;4.354;2022-10-16T11:41:28;30.80;85.10
25138;DHT22;13112;50.986;4.354;2022-10-16T11:47:23;31.40;83.40
25138;DHT22;13112;50.986;4.354;2022-10-16T11:49:59;31.20;84.90
25138;DHT22;13112;50.986;4.354;2022-10-16T11:52:33;28.40;85.60
25138;DHT22;13112;50.986;4.354;2022-10-16T11:55:22;27.70;90.10
25138;DHT22;13112;50.986;4.354;2022-10-16T11:57:57;26.50;91.10
25138;DHT22;13112;50.986;4.354;2022-10-16T12:00:28;27.50;90.50
25138;DHT22;13112;50.986;4.354;2022-10-16T12:06:01;28.70;88.50
25138;DHT22;13112;50.986;4.354;2022-10-16T12:08:30;27.70;90.10
25138;DHT22;13112;50.986;4.354;2022-10-16T12:13:46;26.80;90.70
25138;DHT22;13112;50.986;4.354;2022-10-16T12:18:44;26.80;91.90
25138;DHT22;13112;50.986;4.354;2022-10-16T12:21:11;26.90;91.30
25138;DHT22;13112;50.986;4.354;2022-10-16T12:23:54;26.90;90.90
25138;DHT22;13112;50.986;4.354;2022-10-16T12:26:26;25.60;91.40
25138;DHT22;13112;50.986;4.354;2022-10-16T12:28:53;26.40;92.10
25138;DHT22;13112;50.986;4.354;2022-10-16T12:31:19;28.10;90.40
25138;DHT22;13112;50.986;4.354;2022-10-16T12:34:01;29.30;89.80
25138;DHT22;13112;50.986;4.354;2022-10-16T12:36:30;29.30;89.10
25138;DHT22;13112;50.986;4.354;2022-10-16T12:38:56;29.40;90.40
25138;DHT22;13112;50.986;4.354;2022-10-16T12:43:52;29.90;89.50
25138;DHT22;13112;50.986;4.354;2022-10-16T12:48:44;28.80;89.90
25138;DHT22;13112;50.986;4.354;2022-10-16T12:56:56;26.10;92.30
25138;DHT22;13112;50.986;4.354;2022-10-16T13:21:11;22.70;99.40
25138;DHT22;13112;50.986;4.354;2022-10-16T13:29:03;21.20;99.90
25138;DHT22;13112;50.986;4.354;2022-10-16T13:31:30;20.80;99.90
25138;DHT22;13112;50.986;4.354;2022-10-16T13:33:58;20.70;99.90
25138;DHT22;13112;50.986;4.354;2022-10-16T13:36:46;20.40;99.90
25138;DHT22;13112;50.986;4.354;2022-10-16T13:39:26;20.20;99.90
25138;DHT22;13112;50.986;4.354;2022-10-16T13:44:24;20.40;99.90
25138;DHT22;13112;50.986;4.354;2022-10-16T13:47:00;20.60;99.90
25138;DHT22;13112;50.986;4.354;2022-10-16T13:49:26;20.60;99.90
25138;DHT22;13112;50.986;4.354;2022-10-16T13:51:56;20.70;99.90
25138;DHT22;13112;50.986;4.354;2022-10-16T13:54:23;20.60;99.90
25138;DHT22;13112;50.986;4.354;2022-10-16T13:56:49;20.30;99.90
25138;DHT22;13112;50.986;4.354;2022-10-16T13:59:34;20.30;99.90
25138;DHT22;13112;50.986;4.354;2022-10-16T14:02:13;20.50;99.90
25138;DHT22;13112;50.986;4.354;2022-10-16T14:04:40;20.70;99.90
25138;DHT22;13112;50.986;4.354;2022-10-16T14:07:34;20.70;99.90
25138;DHT22;13112;50.986;4.354;2022-10-16T14:10:04;20.60;99.90
25138;DHT22;13112;50.986;4.354;2022-10-16T14:12:30;20.40;99.90
25138;DHT22;13112;50.986;4.354;2022-10-16T14:14:57;20.60;99.90
25138;DHT22;13112;50.986;4.354;2022-10-16T14:17:29;20.90;99.90
25138;DHT22;13112;50.986;4.354;2022-10-16T14:19:58;20.90;99.90
25138;DHT22;13112;50.986;4.354;2022-10-16T14:22:34;21.20;99.90
25138;DHT22;13112;50.986;4.354;2022-10-16T14:25:01;21.00;99.90
25138;DHT22;13112;50.986;4.354;2022-10-16T14:27:35;21.00;99.90
25138;DHT22;13112;50.986;4.354;2022-10-16T14:32:33;21.20;99.90
25138;DHT22;13112;50.986;4.354;2022-10-16T14:34:59;21.10;99.90
25138;DHT22;13112;50.986;4.354;2022-10-16T14:37:27;21.30;99.90
25138;DHT22;13112;50.986;4.354;2022-10-16T14:39:54;21.40;99.90
25138;DHT22;13112;50.986;4.354;2022-10-16T14:42:21;21.50;99.90
25138;DHT22;13112;50.986;4.354;2022-10-16T14:44:50;21.70;99.90
25138;DHT22;13112;50.986;4.354;2022-10-16T14:47:22;21.60;99.90
25138;DHT22;13112;50.986;4.354;2022-10-16T14:49:52;21.60;99.90
25138;DHT22;13112;50.986;4.354;2022-10-16T14:52:20;21.50;99.90
25138;DHT22;13112;50.986;4.354;2022-10-16T14:54:49;21.50;99.90
25138;DHT22;13112;50.986;4.354;2022-10-16T14:57:20;21.70;99.90
25138;DHT22;13112;50.986;4.354;2022-10-16T14:59:48;21.80;99.90
25138;DHT22;13112;50.986;4.354;2022-10-16T15:02:31;21.70;99.90
25138;DHT22;13112;50.986;4.354;2022-10-16T15:04:58;21.60;99.90
25138;DHT22;13112;50.986;4.354;2022-10-16T15:07:27;21.50;99.90
25138;DHT22;13112;50.986;4.354;2022-10-16T15:09:53;21.50;99.90
25138;DHT22;13112;50.986;4.354;2022-10-16T15:12:19;21.40;99.90
25138;DHT22;13112;50.986;4.354;2022-10-16T15:14:44;21.30;99.90
25138;DHT22;13112;50.986;4.354;2022-10-16T15:17:11;21.20;99.90
25138;DHT22;13112;50.986;4.354;2022-10-16T15:19:36;21.00;99.90
25138;DHT22;13112;50.986;4.354;2022-10-16T15:22:02;20.80;99.90
25138;DHT22;13112;50.986;4.354;2022-10-16T15:24:28;20.60;99.90
25138;DHT22;13112;50.986;4.354;2022-10-16T15:26:54;20.40;99.90
25138;DHT22;13112;50.986;4.354;2022-10-16T15:29:19;20.40;99.90
25138;DHT22;13112;50.986;4.354;2022-10-16T15:31:45;20.40;99.90
25138;DHT22;13112;50.986;4.354;2022-10-16T15:34:13;20.60;99.90
25138;DHT22;13112;50.986;4.354;2022-10-16T15:36:39;20.70;99.90
25138;DHT22;13112;50.986;4.354;2022-10-16T15:39:15;20.80;99.90
25138;DHT22;13112;50.986;4.354;2022-10-16T15:41:41;20.70;99.90
25138;DHT22;13112;50.986;4.354;2022-10-16T15:44:07;20.60;99.90
25138;DHT22;13112;50.986;4.354;2022-10-16T15:46:33;20.70;99.90
25138;DHT22;13112;50.986;4.354;2022-10-16T15:49:00;20.60;99.90
25138;DHT22;13112;50.986;4.354;2022-10-16T15:51:26;20.70;99.90
25138;DHT22;13112;50.986;4.354;2022-10-16T15:53:58;20.60;99.90
25138;DHT22;13112;50.986;4.354;2022-10-16T15:56:27;20.40;99.90
25138;DHT22;13112;50.986;4.354;2022-10-16T15:58:54;20.10;99.90
25138;DHT22;13112;50.986;4.354;2022-10-16T16:01:20;19.80;99.90
25138;DHT22;13112;50.986;4.354;2022-10-16T16:03:46;19.80;99.90
25138;DHT22;13112;50.986;4.354;2022-10-16T16:06:13;19.40;99.90
25138;DHT22;13112;50.986;4.354;2022-10-16T16:08:39;19.50;99.90
25138;DHT22;13112;50.986;4.354;2022-10-16T16:11:11;19.40;99.90
25138;DHT22;13112;50.986;4.354;2022-10-16T16:13:38;19.20;99.90
25138;DHT22;13112;50.986;4.354;2022-10-16T16:16:13;19.20;99.90
25138;DHT22;13112;50.986;4.354;2022-10-16T16:18:40;19.30;99.90
25138;DHT22;13112;50.986;4.354;2022-10-16T16:21:06;19.10;99.90
25138;DHT22;13112;50.986;4.354;2022-10-16T16:23:32;19.10;99.90
25138;DHT22;13112;50.986;4.354;2022-10-16T16:26:12;19.10;99.90
25138;DHT22;13112;50.986;4.354;2022-10-16T16:28:39;19.10;99.90
25138;DHT22;13112;50.986;4.354;2022-10-16T16:31:05;19.20;99.90
25138;DHT22;13112;50.986;4.354;2022-10-16T16:33:31;19.40;99.90
25138;DHT22;13112;50.986;4.354;2022-10-16T16:35:58;19.30;99.90
25138;DHT22;13112;50.986;4.354;2022-10-16T16:38:25;19.20;99.90
25138;DHT22;13112;50.986;4.354;2022-10-16T16:40:51;19.20;99.90
25138;DHT22;13112;50.986;4.354;2022-10-16T16:43:17;19.20;99.90
25138;DHT22;13112;50.986;4.354;2022-10-16T16:45:43;19.20;99.90
25138;DHT22;13112;50.986;4.354;2022-10-16T16:48:09;19.30;99.90
25138;DHT22;13112;50.986;4.354;2022-10-16T16:50:37;19.10;99.90
25138;DHT22;13112;50.986;4.354;2022-10-16T16:53:03;19.10;99.90
25138;DHT22;13112;50.986;4.354;2022-10-16T16:55:29;19.00;99.90
25138;DHT22;13112;50.986;4.354;2022-10-16T16:57:55;18.80;99.90
25138;DHT22;13112;50.986;4.354;2022-10-16T17:00:22;18.80;99.90
25138;DHT22;13112;50.986;4.354;2022-10-16T17:02:48;18.80;99.90
25138;DHT22;13112;50.986;4.354;2022-10-16T17:05:14;18.80;99.90
25138;DHT22;13112;50.986;4.354;2022-10-16T17:07:40;18.90;99.90
25138;DHT22;13112;50.986;4.354;2022-10-16T17:10:07;18.70;99.90
25138;DHT22;13112;50.986;4.354;2022-10-16T17:12:33;18.30;99.90
25138;DHT22;13112;50.986;4.354;2022-10-16T17:14:58;18.00;99.90
25138;DHT22;13112;50.986;4.354;2022-10-16T17:17:24;17.90;99.90
25138;DHT22;13112;50.986;4.354;2022-10-16T17:19:50;18.10;99.90
25138;DHT22;13112;50.986;4.354;2022-10-16T17:22:17;18.20;99.90
25138;DHT22;13112;50.986;4.354;2022-10-16T17:24:43;18.30;99.90
25138;DHT22;13112;50.986;4.354;2022-10-16T17:27:09;18.00;99.90
25138;DHT22;13112;50.986;4.354;2022-10-16T17:29:37;18.10;99.90
25138;DHT22;13112;50.986;4.354;2022-10-16T17:32:03;17.80;99.90
25138;DHT22;13112;50.986;4.354;2022-10-16T17:34:28;17.60;99.90
25138;DHT22;13112;50.986;4.354;2022-10-16T17:36:54;17.40;99.90
25138;DHT22;13112;50.986;4.354;2022-10-16T17:39:20;17.30;99.90
25138;DHT22;13112;50.986;4.354;2022-10-16T17:41:46;16.90;99.90
25138;DHT22;13112;50.986;4.354;2022-10-16T17:44:12;16.70;99.90
25138;DHT22;13112;50.986;4.354;2022-10-16T17:46:49;16.80;99.90
25138;DHT22;13112;50.986;4.354;2022-10-16T17:49:15;16.80;99.90
25138;DHT22;13112;50.986;4.354;2022-10-16T17:51:42;16.80;99.90
25138;DHT22;13112;50.986;4.354;2022-10-16T17:54:08;16.70;99.90
25138;DHT22;13112;50.986;4.354;2022-10-16T17:56:34;16.60;99.90